• Join FlightAware (Why Join?)
  • Login
  • US Flag 
11:54PM EDT


 

Airport Tracker/Info


-or-


 

Live Flight TrackerFlight Track Log ✈ AIE352 ✈ 29-Jun-2013 ✈ CYVO - CTP9

Flight Track Log - Related Links

Times and Time Zones

All times are in EDT time to prevent confusion due to time zone crossing. See the AIE352 flight status page for this flight to view local times or setup timezone preferences in your user account.

Time Position Orientation Groundspeed Altitude Reporting Facility
EDT Latitude Longitude Course Direction KTS MPH feet Rate Location/Type
12:35PM 50.1000 -77.0667 North 410 472 31,000  Level Montreal Center
12:36PM 50.2333 -77.0500 North 420 483 31,000  Level Montreal Center
12:37PM 50.3333 -77.0167 12° North 420 483 31,000  Level Montreal Center
12:38PM 50.4833 -76.9667 12° North 420 483 31,000  Level Montreal Center
12:39PM 50.5833 -76.9500 North 420 483 31,000  Level Montreal Center
12:40PM 50.7167 -76.9167 North 420 483 31,000  Level Montreal Center
12:41PM 50.8167 -76.9000 North 420 483 31,000  Level Montreal Center
12:42PM 50.9333 -76.8667 10° North 420 483 31,000  Level Montreal Center
12:43PM 51.0500 -76.8167 15° North 430 495 31,000  Level Montreal Center
12:44PM 51.1667 -76.8000 North 430 495 31,000  Level Montreal Center
12:45PM 51.2833 -76.7667 10° North 430 495 31,000  Level Montreal Center
12:46PM 51.4000 -76.7500 North 420 483 31,000  Level Montreal Center
12:47PM 51.5167 -76.7167 10° North 430 495 31,000  Level Montreal Center
12:48PM 51.6333 -76.6667 15° North 430 495 31,000  Level Montreal Center
12:49PM 51.7667 -76.6500 North 420 483 31,000  Level Montreal Center
12:50PM 51.8667 -76.6167 12° North 430 495 31,000  Level Montreal Center
12:51PM 52.0000 -76.6000 North 430 495 31,000  Level Montreal Center
12:52PM 52.1167 -76.5667 10° North 430 495 31,000  Level Montreal Center
12:53PM 52.2333 -76.5333 10° North 430 495 31,000  Level Montreal Center
12:54PM 52.3500 -76.4833 15° North 430 495 31,000  Level Montreal Center
12:55PM 52.4667 -76.4667 North 430 495 31,000  Level Montreal Center
12:56PM 52.5833 -76.4333 10° North 430 495 31,000  Level Montreal Center
12:57PM 52.7000 -76.4167 North 430 495 31,000  Level Montreal Center
12:58PM 52.8167 -76.3833 10° North 430 495 31,000  Level Montreal Center
12:59PM 52.9333 -76.3333 14° North 430 495 31,000  Level Montreal Center
01:00PM 53.0500 -76.3000 10° North 430 495 31,000  Level Montreal Center
01:01PM 53.1833 -76.2667 North 430 495 31,000  Level Montreal Center
01:02PM 53.3000 -76.2500 North 430 495 31,000  Level Montreal Center
01:03PM 53.4167 -76.2167 10° North 430 495 31,000  Level Montreal Center
01:04PM 53.5500 -76.1667 13° North 430 495 31,000  Level Montreal Center
01:05PM 53.6667 -76.1333 10° North 440 506 31,000  Level Montreal Center
01:06PM 53.7833 -76.1000 10° North 440 506 31,000  Level Montreal Center
01:07PM 53.9000 -76.0833 North 440 506 31,000  Level Montreal Center
01:08PM 54.0167 -76.0500 10° North 430 495 31,000  Level Montreal Center
01:09PM 54.1333 -76.0000 14° North 430 495 31,000  Level Montreal Center
01:10PM 54.2500 -75.9667 North 430 495 31,000  Level Montreal Center
01:11PM 54.3667 -75.9333 North 430 495 31,000  Level Montreal Center
01:12PM 54.5000 -75.9000 North 430 495 31,000  Level Montreal Center
01:13PM 54.6167 -75.8500 14° North 430 495 31,000  Level Montreal Center
01:14PM 54.7333 -75.8167 North 430 495 31,000  Level Montreal Center
01:15PM 54.8500 -75.7833 North 430 495 31,000  Level Montreal Center
01:16PM 54.9667 -75.7500 North 440 506 31,000  Level Montreal Center
01:17PM 55.0833 -75.7333 North 430 495 31,000  Level Montreal Center
01:18PM 55.2000 -75.6667 18° North 440 506 31,000  Level Montreal Center
01:19PM 55.3500 -75.6333 North 440 506 31,000  Level Montreal Center
01:20PM 55.4500 -75.6000 11° North 430 495 31,000  Level Montreal Center
01:21PM 55.5833 -75.5667 North 430 495 31,000  Level Montreal Center
01:22PM 55.7000 -75.5167 14° North 430 495 31,000  Level Montreal Center
01:23PM 55.8167 -75.4833 North 430 495 31,000  Level Montreal Center
01:24PM 55.9333 -75.4500 North 430 495 31,000  Level Montreal Center
01:25PM 56.0500 -75.4167 North 430 495 31,000  Level Montreal Center
01:26PM 56.1667 -75.3833 North 430 495 31,000  Level Montreal Center
01:27PM 56.2833 -75.3167 18° North 430 495 31,000  Level Montreal Center
01:28PM 56.4000 -75.3000 North 430 495 31,000  Level Montreal Center
01:31PM 56.7809 -75.1806 10° North  Level FlightAware Approximate
01:32PM 56.8500 -75.1667 10° North 410 472 31,000  Level Montreal Center
01:33PM 56.9667 -75.1333 North 420 483 31,000  Level Montreal Center
01:34PM 57.0833 -75.0667 17° North 430 495 31,000  Level Montreal Center
01:36PM 57.3400 -74.9852 10° North  Level FlightAware Approximate
01:38PM 57.9146 -74.8100 10° North  Level FlightAware Approximate
01:40PM 57.8667 -74.8167 10° North 530 610 31,000  Level Montreal Center
01:41PM 57.9667 -74.7833 10° North 430 495 31,000  Level Montreal Center
01:42PM 58.0833 -74.7500 North 430 495 31,000  Level Montreal Center
01:43PM 58.4739 -74.6107 10° North  Level FlightAware Approximate
01:43PM 58.2000 -74.6833 17° North 430 495 31,000  Level Montreal Center
01:44PM 58.6358 -74.5552 10° North  Level FlightAware Approximate
01:44PM 58.3167 -74.6500 North 430 495 31,000  Level Montreal Center
01:45PM 58.7977 -74.4992 10° North  Level FlightAware Approximate
01:45PM 58.4333 -74.6167 North 430 495 31,000  Level Montreal Center
01:46PM 58.9595 -74.4427 10° North  Level FlightAware Approximate
01:46PM 58.5500 -74.5667 13° North 420 483 31,000  Level Montreal Center
01:47PM 58.6667 -74.5333 North 430 495 31,000  Level Montreal Center
01:48PM 58.7833 -74.4667 16° North 430 495 31,000  Level Montreal Center
01:49PM 58.9000 -74.4333 North 430 495 31,000  Level Montreal Center
01:50PM 59.0167 -74.4000 North 430 495 31,000  Level Montreal Center
01:51PM 59.1333 -74.3500 12° North 430 495 31,000  Level Montreal Center
01:52PM 59.2667 -74.2833 14° North 440 506 31,000  Level Montreal Center
01:53PM 59.3833 -74.2500 North 430 495 31,000  Level Montreal Center
01:54PM 59.5000 -74.2000 12° North 430 495 31,000  Level Montreal Center
01:55PM 59.6167 -74.1667 North 430 495 31,000  Level Montreal Center
01:56PM 59.7333 -74.1333 North 440 506 31,000  Level Montreal Center
01:57PM 59.8500 -74.0833 12° North 430 495 31,000  Level Montreal Center
01:58PM 59.9667 -74.0167 16° North 440 506 31,000  Level Montreal Center
02:00PM 60.1491 -73.9746 North  Level FlightAware Approximate
02:07PM 61.2766 -73.4930 12° North  Level FlightAware Approximate
02:08PM 61.4361 -73.4096 15° North  Level FlightAware Approximate
02:09PM 61.5969 -73.3379 11° North  Level FlightAware Approximate
02:10PM 61.6500 -73.3167 11° North  Level FlightAware Approximate
02:11PM 61.6500 -73.3167 11° North  Level FlightAware Approximate
02:12PM 61.6500 -73.3167 11° North  Level FlightAware Approximate
02:13PM 61.6500 -73.3167 11° North  Level FlightAware Approximate
02:14PM 61.6500 -73.3167 11° North  Level FlightAware Approximate
02:15PM 61.6500 -73.3167 11° North  Level FlightAware Approximate
02:16PM 61.6500 -73.3167 11° North  Level FlightAware Approximate
02:17PM 61.6500 -73.3167 11° North  Level FlightAware Approximate
02:18PM 61.6500 -73.3167 11° North  Level FlightAware Approximate
02:19PM 61.6500 -73.3167 11° North  Level FlightAware Approximate
02:20PM 61.6500 -73.3167 11° North  Level FlightAware Approximate
02:21PM 61.6500 -73.3167 11° North  Level FlightAware Approximate
02:22PM 61.6500 -73.3167 11° North  Level FlightAware Approximate
02:23PM 61.6500 -73.3167 11° North  Level FlightAware Approximate
02:24PM 61.6500 -73.3167 11° North  Level FlightAware Approximate
02:25PM 61.6500 -73.3167 11° North  Level FlightAware Approximate
02:26PM 61.6500 -73.3167 11° North  Level FlightAware Approximate
02:27PM 61.6500 -73.3167 11° North  Level FlightAware Approximate
02:28PM 61.6500 -73.3167 11° North  Level FlightAware Approximate